Time;durP1;ratioP1;P1;durP2;ratioP2;P2;SDS_P1;SDS_P2;PMS_P1;PMS_P2;Temp;Humidity;BMP_temperature;BMP_pressure;BME280_temperature;BME280_humidity;BME280_pressure;Samples;Min_cycle;Max_cycle;Signal;HPM_P1;HPM_P2
2024/01/15 00:00:40;;;;;;;3.45;2.92;;;;;;;0.01;73.26;99569.66;5085384;28;20089;-45
2024/01/15 00:03:07;;;;;;;4.18;3.40;;;;;;;-0.02;73.71;99575.50;5060829;28;20051;-45
2024/01/15 00:05:34;;;;;;;3.45;2.58;;;;;;;-0.03;74.04;99569.53;5066909;28;20051;-50
2024/01/15 00:08:00;;;;;;;3.60;2.17;;;;;;;-0.06;73.48;99569.47;5062364;28;20048;-44
2024/01/15 00:10:27;;;;;;;4.78;2.47;;;;;;;-0.07;73.25;99577.91;5064520;28;20114;-45
2024/01/15 00:12:55;;;;;;;4.68;2.70;;;;;;;-0.09;73.22;99573.59;5059003;28;20055;-53
2024/01/15 00:15:22;;;;;;;3.88;2.83;;;;;;;-0.12;74.29;99574.34;5065181;28;20041;-50
2024/01/15 00:17:49;;;;;;;3.90;2.90;;;;;;;-0.13;73.70;99562.44;5056974;28;20114;-44
2024/01/15 00:20:16;;;;;;;1.48;1.38;;;;;;;-0.18;74.05;99553.78;5065159;28;20057;-49
2024/01/15 00:22:42;;;;;;;2.35;1.90;;;;;;;-0.20;74.13;99551.16;5063084;28;20052;-45
2024/01/15 00:25:09;;;;;;;3.05;2.53;;;;;;;-0.19;73.68;99546.97;5056005;28;20127;-42
2024/01/15 00:27:36;;;;;;;6.80;3.65;;;;;;;-0.18;73.57;99549.56;5054903;28;20052;-42
2024/01/15 00:30:04;;;;;;;4.95;3.67;;;;;;;-0.19;74.31;99544.41;5058293;28;20052;-50
2024/01/15 00:32:31;;;;;;;3.90;2.45;;;;;;;-0.20;74.21;99541.00;5061784;28;20072;-46
2024/01/15 00:34:58;;;;;;;4.63;1.42;;;;;;;-0.20;73.86;99543.53;5055582;28;20045;-49
2024/01/15 00:37:25;;;;;;;2.35;2.13;;;;;;;-0.20;73.90;99540.16;5056726;28;20770;-47
2024/01/15 00:39:52;;;;;;;1.88;1.15;;;;;;;-0.21;74.07;99543.50;5053581;28;20071;-46
2024/01/15 00:42:19;;;;;;;3.95;2.60;;;;;;;-0.24;74.61;99545.94;5054651;28;20545;-47
2024/01/15 00:44:45;;;;;;;2.65;2.42;;;;;;;-0.26;73.75;99540.81;5055187;28;20545;-48
2024/01/15 00:47:12;;;;;;;5.25;4.85;;;;;;;-0.26;73.68;99536.56;5058107;28;20067;-45
2024/01/15 00:49:39;;;;;;;2.55;2.35;;;;;;;-0.28;74.21;99543.28;5066004;28;20044;-51
2024/01/15 00:52:07;;;;;;;2.47;2.28;;;;;;;-0.32;74.02;99536.38;5065292;28;20048;-45
2024/01/15 00:54:34;;;;;;;4.75;2.35;;;;;;;-0.29;74.60;99540.69;5057147;28;20052;-45
2024/01/15 00:57:01;;;;;;;3.90;2.40;;;;;;;-0.30;73.55;99538.97;5059546;28;20485;-43
2024/01/15 00:59:27;;;;;;;3.88;2.35;;;;;;;-0.33;73.76;99532.09;5061651;28;20045;-48
2024/01/15 01:01:54;;;;;;;5.80;2.33;;;;;;;-0.35;74.40;99526.09;5059324;28;20049;-51
2024/01/15 01:04:21;;;;;;;3.67;3.08;;;;;;;-0.36;74.33;99538.75;5065464;28;20052;-48
2024/01/15 01:06:48;;;;;;;5.45;2.15;;;;;;;-0.38;74.13;99536.16;5059214;28;20130;-48
2024/01/15 01:09:15;;;;;;;7.07;3.33;;;;;;;-0.40;73.88;99527.63;5065083;28;20485;-49
2024/01/15 01:11:42;;;;;;;4.57;2.40;;;;;;;-0.42;73.50;99534.31;5057219;28;20052;-44
2024/01/15 01:14:09;;;;;;;4.97;2.15;;;;;;;-0.45;73.80;99535.09;5059173;28;20044;-48
2024/01/15 01:16:38;;;;;;;3.55;2.83;;;;;;;-0.48;73.94;99529.91;5052883;28;20052;-48
2024/01/15 01:19:07;;;;;;;3.47;2.88;;;;;;;-0.52;73.58;99534.03;5060888;28;20040;-47
2024/01/15 01:21:34;;;;;;;3.85;3.17;;;;;;;-0.55;73.92;99531.38;5061034;28;20094;-43
2024/01/15 01:24:01;;;;;;;3.55;1.70;;;;;;;-0.57;73.49;99529.59;5062125;28;20421;-43
2024/01/15 01:26:27;;;;;;;3.00;2.28;;;;;;;-0.58;73.63;99526.19;5059743;28;20041;-51
2024/01/15 01:28:54;;;;;;;2.75;2.55;;;;;;;-0.61;73.77;99526.06;5065531;28;21126;-45
2024/01/15 01:31:22;;;;;;;4.15;2.10;;;;;;;-0.63;73.35;99520.09;5055914;28;20103;-48
2024/01/15 01:33:49;;;;;;;2.30;1.90;;;;;;;-0.67;74.27;99529.25;5056845;28;20098;-46
2024/01/15 01:36:16;;;;;;;4.30;2.20;;;;;;;-0.67;73.69;99523.34;5060477;28;20049;-44
2024/01/15 01:38:43;;;;;;;2.83;2.60;;;;;;;-0.67;73.85;99528.41;5064020;28;20068;-42
2024/01/15 01:41:10;;;;;;;4.35;1.75;;;;;;;-0.67;74.09;99523.34;5062240;28;20044;-45
2024/01/15 01:43:38;;;;;;;3.67;2.97;;;;;;;-0.70;74.18;99513.06;5050182;28;20071;-42
2024/01/15 01:46:05;;;;;;;2.83;1.08;;;;;;;-0.68;74.77;99521.59;5061257;28;20048;-45
2024/01/15 01:48:32;;;;;;;3.33;1.50;;;;;;;-0.69;74.12;99517.31;5051127;28;20052;-49
2024/01/15 01:51:02;;;;;;;2.17;1.50;;;;;;;-0.74;75.07;99522.28;5066204;28;20052;-47
2024/01/15 01:53:31;;;;;;;0.90;0.63;;;;;;;-0.75;75.12;99514.56;5053356;28;20428;-42
2024/01/15 01:55:58;;;;;;;1.83;1.73;;;;;;;-0.72;75.00;99514.66;5061920;28;20048;-46
2024/01/15 01:58:25;;;;;;;4.63;2.03;;;;;;;-0.71;74.91;99511.31;5060209;28;20059;-45
2024/01/15 02:00:53;;;;;;;4.55;2.17;;;;;;;-0.72;75.08;99509.56;5065525;28;20041;-47
2024/01/15 02:03:20;;;;;;;3.08;1.35;;;;;;;-0.72;74.59;99514.66;5065426;28;20131;-50
2024/01/15 02:05:49;;;;;;;2.85;1.60;;;;;;;-0.73;74.67;99507.84;5065279;28;20044;-47
2024/01/15 02:08:16;;;;;;;3.85;1.40;;;;;;;-0.77;74.81;99504.34;5064651;28;20128;-52
2024/01/15 02:10:44;;;;;;;1.67;1.05;;;;;;;-0.76;74.79;99506.06;5066663;28;20394;-52
2024/01/15 02:13:11;;;;;;;2.88;2.65;;;;;;;-0.79;74.67;99504.28;5058166;28;20048;-49
2024/01/15 02:15:37;;;;;;;2.45;1.15;;;;;;;-0.79;74.24;99508.50;5054634;28;20063;-49
2024/01/15 02:18:07;;;;;;;2.20;1.02;;;;;;;-0.83;74.35;99497.38;5068028;28;20132;-48
2024/01/15 02:20:34;;;;;;;3.50;2.15;;;;;;;-0.84;74.64;99504.94;5061866;28;20041;-44
2024/01/15 02:25:44;;;;;;;6.05;3.28;;;;;;;-0.88;74.76;99503.13;5043077;27;20410;-44
2024/01/15 02:28:13;;;;;;;3.35;3.05;;;;;;;-0.91;74.90;99499.63;5016245;28;20050;-45
2024/01/15 02:30:42;;;;;;;3.22;2.85;;;;;;;-0.93;75.22;99500.41;5016131;28;20164;-51
2024/01/15 02:33:11;;;;;;;3.33;2.95;;;;;;;-0.94;74.85;99502.06;5009651;28;20061;-42
2024/01/15 02:35:38;;;;;;;4.55;2.55;;;;;;;-0.96;75.08;99493.53;5017943;28;20568;-47
2024/01/15 02:38:05;;;;;;;2.90;2.60;;;;;;;-0.96;75.42;99488.44;5013607;28;20049;-47
2024/01/15 02:40:34;;;;;;;2.88;2.63;;;;;;;-0.99;75.29;99480.72;5019852;28;20138;-44
2024/01/15 02:43:02;;;;;;;2.92;2.72;;;;;;;-0.99;75.04;99480.72;5010074;28;20081;-44
2024/01/15 02:45:29;;;;;;;7.47;2.67;;;;;;;-0.98;75.10;99491.75;5020203;28;20046;-47
2024/01/15 02:47:56;;;;;;;4.57;2.50;;;;;;;-0.99;75.38;99484.91;5013962;28;20060;-43
2024/01/15 02:50:22;;;;;;;2.42;1.92;;;;;;;-1.00;75.05;99485.75;5018167;28;20692;-44
2024/01/15 02:52:49;;;;;;;2.90;1.38;;;;;;;-1.01;75.24;99491.66;5008577;28;20414;-49
2024/01/15 02:55:16;;;;;;;2.45;2.25;;;;;;;-1.04;75.44;99488.16;4991833;28;20533;-43
2024/01/15 02:57:43;;;;;;;2.83;0.88;;;;;;;-1.06;75.37;99494.00;4999062;28;20419;-45
2024/01/15 03:00:11;;;;;;;3.25;2.90;;;;;;;-1.08;75.50;99491.41;4990173;28;20097;-46
2024/01/15 03:02:40;;;;;;;1.95;1.85;;;;;;;-1.14;76.13;99481.06;4997152;28;20060;-44
2024/01/15 03:05:10;;;;;;;3.75;3.42;;;;;;;-1.14;76.22;99480.16;4985608;28;20048;-46
2024/01/15 03:07:38;;;;;;;2.88;2.67;;;;;;;-1.13;76.20;99485.31;4996758;28;20479;-48
2024/01/15 03:10:06;;;;;;;2.50;2.22;;;;;;;-1.11;76.05;99480.28;5000938;28;20069;-50
2024/01/15 03:12:33;;;;;;;3.90;3.55;;;;;;;-1.10;75.49;99482.88;5002886;28;20058;-53
2024/01/15 03:15:00;;;;;;;8.23;4.32;;;;;;;-1.11;75.71;99481.16;4993707;28;20101;-45
2024/01/15 03:17:26;;;;;;;4.20;3.40;;;;;;;-1.13;75.60;99477.69;4992125;28;20047;-48
2024/01/15 03:19:53;;;;;;;3.65;3.35;;;;;;;-1.13;75.98;99485.31;4988270;28;20054;-46
2024/01/15 03:22:20;;;;;;;3.05;2.75;;;;;;;-1.13;75.80;99484.44;5002049;28;20038;-50
2024/01/15 03:24:46;;;;;;;3.35;2.83;;;;;;;-1.15;75.87;99492.00;4989862;28;20104;-52
2024/01/15 03:27:13;;;;;;;3.67;3.28;;;;;;;-1.14;75.32;99490.34;4994650;28;20129;-53
2024/01/15 03:29:41;;;;;;;2.92;2.53;;;;;;;-1.14;75.67;99491.22;4997007;28;20121;-48
2024/01/15 03:32:07;;;;;;;3.88;3.15;;;;;;;-1.15;75.56;99498.78;4996169;28;20047;-49
2024/01/15 03:34:34;;;;;;;2.42;2.17;;;;;;;-1.17;75.78;99486.91;4993918;28;20054;-51
2024/01/15 03:37:03;;;;;;;2.75;2.45;;;;;;;-1.18;75.80;99485.13;4979684;28;20038;-48
2024/01/15 03:39:32;;;;;;;4.07;2.88;;;;;;;-1.17;75.73;99486.00;4981284;28;20137;-54
2024/01/15 03:41:59;;;;;;;3.20;2.10;;;;;;;-1.21;76.16;99489.25;4981089;28;20577;-43
2024/01/15 03:44:27;;;;;;;3.05;2.67;;;;;;;-1.21;76.01;99485.03;4984022;28;20517;-47
2024/01/15 03:46:54;;;;;;;3.20;2.40;;;;;;;-1.21;75.78;99479.09;4982871;28;20050;-40
2024/01/15 03:49:21;;;;;;;5.65;2.60;;;;;;;-1.21;76.19;99474.00;4979141;28;20082;-43
2024/01/15 03:51:47;;;;;;;4.40;3.17;;;;;;;-1.23;75.84;99475.63;4979441;28;20049;-47
2024/01/15 03:54:14;;;;;;;3.67;3.38;;;;;;;-1.24;75.76;99473.91;4981637;28;20078;-44
2024/01/15 03:56:45;;;;;;;3.90;2.78;;;;;;;-1.26;76.00;99481.47;4983070;28;20104;-44
2024/01/15 03:59:11;;;;;;;3.13;2.92;;;;;;;-1.26;76.19;99490.75;4978323;28;20053;-44
2024/01/15 04:01:38;;;;;;;5.32;2.88;;;;;;;-1.27;75.93;99494.09;4981538;28;20043;-53
2024/01/15 04:04:05;;;;;;;2.08;1.98;;;;;;;-1.32;76.70;99499.88;4986363;28;20049;-48
2024/01/15 04:06:32;;;;;;;3.05;2.75;;;;;;;-1.28;76.03;99487.31;4978357;28;20051;-49
2024/01/15 04:08:59;;;;;;;1.38;0.88;;;;;;;-1.33;76.39;99485.47;4987608;28;20741;-46
2024/01/15 04:11:25;;;;;;;1.77;1.52;;;;;;;-1.33;76.29;99479.50;4978591;28;20061;-51
2024/01/15 04:13:53;;;;;;;3.28;1.40;;;;;;;-1.32;75.88;99489.72;4976314;28;20487;-49
2024/01/15 04:16:21;;;;;;;2.70;2.50;;;;;;;-1.31;76.01;99488.91;4982194;28;20128;-44
2024/01/15 04:18:48;;;;;;;5.25;2.85;;;;;;;-1.33;76.15;99495.63;4975598;28;20054;-44
2024/01/15 04:21:18;;;;;;;1.67;1.00;;;;;;;-1.32;75.92;99494.81;4989940;28;20415;-46
2024/01/15 04:23:45;;;;;;;2.83;2.58;;;;;;;-1.33;75.98;99494.75;4976886;28;20661;-49
2024/01/15 04:26:12;;;;;;;4.38;2.88;;;;;;;-1.35;75.99;99492.16;4987509;28;20058;-46
2024/01/15 04:28:38;;;;;;;2.90;2.65;;;;;;;-1.36;75.82;99495.50;4980123;28;20046;-49
2024/01/15 04:31:05;;;;;;;2.72;2.47;;;;;;;-1.38;75.81;99492.06;4980868;28;20080;-44
2024/01/15 04:33:32;;;;;;;3.70;2.72;;;;;;;-1.39;75.87;99490.31;4976313;28;20545;-43
2024/01/15 04:36:03;;;;;;;2.33;2.15;;;;;;;-1.41;75.81;99491.94;4979357;28;20051;-52
2024/01/15 04:38:30;;;;;;;2.78;2.47;;;;;;;-1.43;75.62;99488.47;4982633;28;20538;-50
2024/01/15 04:40:57;;;;;;;3.30;2.65;;;;;;;-1.43;75.84;99480.84;4979551;28;20046;-53
2024/01/15 04:43:26;;;;;;;3.58;2.97;;;;;;;-1.46;75.88;99479.06;4984483;28;20046;-46
2024/01/15 04:45:53;;;;;;;3.58;3.33;;;;;;;-1.47;75.69;99476.47;4978932;28;20039;-50
2024/01/15 04:48:20;;;;;;;5.25;2.33;;;;;;;-1.51;76.38;99475.50;4973189;28;20130;-47
2024/01/15 04:50:47;;;;;;;4.70;2.58;;;;;;;-1.51;75.66;99475.50;4974386;28;20050;-50
2024/01/15 04:53:13;;;;;;;1.73;1.63;;;;;;;-1.53;75.44;99481.34;4991735;28;20761;-47
2024/01/15 04:55:42;;;;;;;2.22;2.13;;;;;;;-1.56;75.51;99477.88;4999306;28;20046;-46
2024/01/15 04:58:09;;;;;;;2.33;1.00;;;;;;;-1.54;75.38;99480.47;5002214;28;20418;-55
2024/01/15 05:00:36;;;;;;;5.18;2.45;;;;;;;-1.56;75.04;99487.16;4997819;28;20050;-45
2024/01/15 05:03:03;;;;;;;3.15;2.72;;;;;;;-1.57;75.25;99481.22;4989542;28;20533;-49
2024/01/15 05:05:31;;;;;;;2.53;2.33;;;;;;;-1.61;75.23;99492.06;4999792;28;20050;-49
2024/01/15 05:07:58;;;;;;;2.15;2.03;;;;;;;-1.60;75.42;99485.31;5003087;28;20046;-48
2024/01/15 05:10:26;;;;;;;3.50;2.90;;;;;;;-1.61;75.16;99484.47;5005114;28;20050;-46
2024/01/15 05:12:52;;;;;;;2.53;2.17;;;;;;;-1.63;74.85;99486.06;4999794;28;20064;-46
2024/01/15 05:15:19;;;;;;;4.35;2.17;;;;;;;-1.65;74.80;99485.16;5004482;28;20039;-48
2024/01/15 05:17:46;;;;;;;2.95;1.05;;;;;;;-1.65;74.57;99492.78;5001571;28;20410;-49
2024/01/15 05:20:13;;;;;;;4.03;0.63;;;;;;;-1.69;74.76;99481.63;4996596;28;20049;-47
2024/01/15 05:22:40;;;;;;;1.85;1.75;;;;;;;-1.70;74.86;99494.25;4993019;28;20709;-46
2024/01/15 05:25:06;;;;;;;4.60;2.88;;;;;;;-1.71;74.48;99498.47;5000601;28;20056;-50
2024/01/15 05:27:33;;;;;;;3.45;3.22;;;;;;;-1.72;74.62;99500.97;5012564;28;20046;-48
2024/01/15 05:30:00;;;;;;;3.25;2.97;;;;;;;-1.74;74.29;99503.44;5002639;28;20542;-45
2024/01/15 05:32:27;;;;;;;3.65;3.45;;;;;;;-1.79;74.09;99488.84;4998001;28;20049;-45
2024/01/15 05:34:55;;;;;;;1.92;1.83;;;;;;;-1.81;74.37;99487.09;5004158;28;20042;-45
2024/01/15 05:37:21;;;;;;;2.05;1.92;;;;;;;-1.83;74.44;99487.81;4996495;28;20049;-48
2024/01/15 05:39:48;;;;;;;2.13;0.57;;;;;;;-1.88;74.45;99485.13;5002478;28;20239;-49
2024/01/15 05:42:15;;;;;;;1.77;1.67;;;;;;;-1.85;74.41;99479.31;4999361;28;20152;-49
2024/01/15 05:44:42;;;;;;;3.40;2.05;;;;;;;-1.84;74.30;99476.84;5005316;28;20072;-43
2024/01/15 05:47:08;;;;;;;1.92;1.45;;;;;;;-1.88;74.36;99474.97;4998519;28;20050;-51
2024/01/15 05:49:36;;;;;;;2.03;1.92;;;;;;;-1.89;73.54;99473.22;5001825;28;20069;-45
2024/01/15 05:52:04;;;;;;;2.10;2.00;;;;;;;-1.88;74.41;99480.06;4997324;28;20601;-44
2024/01/15 05:54:31;;;;;;;3.05;1.48;;;;;;;-1.90;74.26;99474.03;5006311;28;20049;-46
2024/01/15 05:56:58;;;;;;;1.02;0.60;;;;;;;-1.87;73.70;99476.72;4992952;28;20418;-48
2024/01/15 05:59:25;;;;;;;2.03;1.75;;;;;;;-1.87;74.03;99476.72;4997347;28;20042;-44
2024/01/15 06:01:53;;;;;;;2.03;1.90;;;;;;;-1.89;74.09;99478.31;4992424;28;20112;-47
2024/01/15 06:04:20;;;;;;;2.08;1.98;;;;;;;-1.94;74.06;99479.81;5004279;28;20561;-47
2024/01/15 06:06:47;;;;;;;1.77;1.67;;;;;;;-1.91;73.59;99473.97;5003396;28;20049;-45
2024/01/15 06:09:14;;;;;;;1.73;1.63;;;;;;;-1.91;73.47;99468.91;4996172;28;20042;-51
2024/01/15 06:11:41;;;;;;;2.15;2.05;;;;;;;-1.91;73.44;99463.81;4998704;28;20053;-48
2024/01/15 06:14:07;;;;;;;3.08;2.88;;;;;;;-1.91;73.50;99464.69;4998815;28;20042;-49
2024/01/15 06:16:34;;;;;;;2.38;2.17;;;;;;;-1.94;73.34;99449.34;5002335;28;20108;-46
2024/01/15 06:19:00;;;;;;;1.75;1.65;;;;;;;-1.95;73.75;99455.25;5002969;28;20073;-50
2024/01/15 06:21:27;;;;;;;2.53;2.05;;;;;;;-1.97;72.95;99457.72;4995548;28;20046;-46
2024/01/15 06:23:56;;;;;;;1.80;1.70;;;;;;;-1.98;72.86;99470.34;4996129;28;20045;-46
2024/01/15 06:26:23;;;;;;;2.15;1.98;;;;;;;-1.99;73.29;99466.09;4995662;28;20080;-49
2024/01/15 06:28:50;;;;;;;2.40;2.20;;;;;;;-2.02;73.54;99461.75;4989435;28;20064;-47
2024/01/15 06:31:18;;;;;;;3.05;1.63;;;;;;;-2.01;73.21;99460.06;4973998;28;20051;-41
2024/01/15 06:33:47;;;;;;;2.10;2.00;;;;;;;-2.04;73.40;99457.41;4981262;28;20134;-49
2024/01/15 06:36:16;;;;;;;3.97;3.15;;;;;;;-2.04;72.91;99457.41;4982709;28;20046;-49
2024/01/15 06:38:45;;;;;;;2.22;2.03;;;;;;;-2.08;73.15;99454.78;4984338;28;20046;-43
2024/01/15 06:41:11;;;;;;;3.40;2.35;;;;;;;-2.05;72.88;99460.75;4979683;28;20078;-53
2024/01/15 06:43:38;;;;;;;1.85;1.75;;;;;;;-2.05;73.09;99460.75;4975319;28;20059;-46
2024/01/15 06:46:05;;;;;;;1.20;1.17;;;;;;;-2.04;73.79;99467.56;4977590;28;20096;-52
2024/01/15 06:48:35;;;;;;;2.13;1.92;;;;;;;-2.05;72.95;99474.31;4970512;28;20065;-44
2024/01/15 06:51:03;;;;;;;1.85;1.75;;;;;;;-2.04;73.15;99472.63;4994518;28;20570;-47
2024/01/15 06:53:29;;;;;;;2.40;2.22;;;;;;;-2.02;73.24;99476.13;4998884;28;20050;-47
2024/01/15 06:55:56;;;;;;;1.85;1.75;;;;;;;-2.02;72.69;99481.19;4999831;28;20073;-44
2024/01/15 06:58:24;;;;;;;0.77;0.40;;;;;;;-2.04;72.83;99477.72;4994253;28;20050;-52
2024/01/15 07:00:51;;;;;;;2.65;2.53;;;;;;;-2.03;73.07;99482.00;4996567;28;20052;-47
2024/01/15 07:03:17;;;;;;;2.08;1.98;;;;;;;-2.02;73.39;99492.22;4999330;28;20054;-46
2024/01/15 07:05:45;;;;;;;1.83;1.73;;;;;;;-2.02;73.60;99497.28;4997648;28;20070;-48
2024/01/15 07:08:12;;;;;;;1.52;1.42;;;;;;;-2.02;73.42;99509.09;4997011;28;20575;-47
2024/01/15 07:10:39;;;;;;;2.10;1.98;;;;;;;-1.98;73.67;99508.41;5002115;28;20133;-48
2024/01/15 07:13:06;;;;;;;2.28;2.17;;;;;;;-1.98;73.55;99510.97;4999035;28;20054;-45
2024/01/15 07:15:32;;;;;;;1.67;1.58;;;;;;;-1.96;73.27;99511.91;5004398;28;20286;-40
2024/01/15 07:17:59;;;;;;;1.58;1.48;;;;;;;-1.95;72.85;99500.94;5002821;28;20459;-52
2024/01/15 07:20:26;;;;;;;2.88;2.72;;;;;;;-1.95;73.49;99506.00;5000299;28;20061;-47
2024/01/15 07:22:53;;;;;;;2.13;2.03;;;;;;;-1.95;73.15;99511.09;4999063;28;20072;-47
2024/01/15 07:25:20;;;;;;;2.03;1.85;;;;;;;-1.96;73.50;99506.81;5007854;28;20049;-47
2024/01/15 07:27:47;;;;;;;2.05;1.92;;;;;;;-1.97;73.15;99511.03;5001708;28;20045;-50
2024/01/15 07:30:14;;;;;;;3.40;2.47;;;;;;;-1.98;73.40;99508.41;4972737;28;20086;-52
2024/01/15 07:32:41;;;;;;;2.65;1.85;;;;;;;-2.02;73.28;99502.38;4973416;28;20050;-45
2024/01/15 07:35:08;;;;;;;2.30;2.20;;;;;;;-2.03;73.27;99510.78;4973800;28;20491;-52
2024/01/15 07:37:35;;;;;;;1.25;0.70;;;;;;;-2.04;73.60;99518.31;4971530;28;20050;-49
2024/01/15 07:40:04;;;;;;;2.72;2.15;;;;;;;-2.05;73.97;99522.56;4970637;28;20043;-43
2024/01/15 07:42:31;;;;;;;2.65;2.28;;;;;;;-2.04;73.10;99531.00;4972599;28;20547;-49
2024/01/15 07:44:58;;;;;;;2.15;1.98;;;;;;;-2.08;73.79;99523.31;4973911;28;20051;-53
2024/01/15 07:47:24;;;;;;;2.45;2.35;;;;;;;-2.06;73.40;99541.13;4975547;28;20046;-48
2024/01/15 07:49:53;;;;;;;1.63;0.40;;;;;;;-2.08;73.21;99553.75;4969999;28;20411;-45
2024/01/15 07:52:20;;;;;;;2.65;1.85;;;;;;;-2.08;73.84;99552.88;4969888;28;20043;-45
2024/01/15 07:54:47;;;;;;;2.75;2.55;;;;;;;-2.10;73.60;99555.34;4968522;28;20138;-53
2024/01/15 07:57:15;;;;;;;1.13;0.45;;;;;;;-2.09;73.94;99546.06;4972690;28;20454;-45
2024/01/15 07:59:43;;;;;;;2.22;2.00;;;;;;;-2.10;73.20;99544.31;4970236;28;20109;-50
2024/01/15 08:02:10;;;;;;;1.65;1.55;;;;;;;-2.12;73.77;99556.97;4974902;28;20081;-49
2024/01/15 08:04:38;;;;;;;2.35;2.25;;;;;;;-2.16;73.59;99550.00;4975547;28;20050;-47
2024/01/15 08:07:06;;;;;;;1.35;1.30;;;;;;;-2.13;73.80;99550.13;4971248;28;20061;-45
2024/01/15 08:09:34;;;;;;;2.15;2.05;;;;;;;-2.12;73.76;99546.81;4970011;28;20555;-47
2024/01/15 08:12:01;;;;;;;4.55;1.80;;;;;;;-2.11;73.73;99542.59;4969874;28;20043;-51
2024/01/15 08:14:28;;;;;;;2.08;1.65;;;;;;;-2.12;74.18;99535.78;4975001;28;20062;-48
2024/01/15 08:16:54;;;;;;;3.65;1.75;;;;;;;-2.10;73.73;99535.03;4971246;28;20058;-45
2024/01/15 08:19:21;;;;;;;2.85;2.65;;;;;;;-2.04;73.69;99528.47;4969891;28;20601;-48
2024/01/15 08:21:49;;;;;;;2.75;2.13;;;;;;;-1.94;73.76;99530.59;4969728;28;20077;-45
2024/01/15 08:24:16;;;;;;;2.20;0.88;;;;;;;-1.79;73.16;99524.38;4969498;28;20441;-52
2024/01/15 08:26:43;;;;;;;2.63;2.20;;;;;;;-1.67;73.70;99519.75;4974879;28;20046;-47
2024/01/15 08:29:11;;;;;;;0.73;0.63;;;;;;;-1.60;72.79;99536.97;4967712;28;20389;-46
2024/01/15 08:31:38;;;;;;;2.03;1.75;;;;;;;-1.56;73.22;99551.53;4969670;28;20046;-46
2024/01/15 08:34:05;;;;;;;1.55;0.85;;;;;;;-1.42;73.29;99561.31;4973179;28;20459;-52
2024/01/15 08:36:34;;;;;;;1.95;1.85;;;;;;;-1.28;73.37;99568.63;4968646;28;20039;-44
2024/01/15 08:39:01;;;;;;;2.25;2.08;;;;;;;-1.09;73.22;99576.13;4994008;28;20137;-50
2024/01/15 08:41:28;;;;;;;1.63;1.52;;;;;;;-0.87;72.55;99586.19;4998101;28;20041;-53
2024/01/15 08:43:56;;;;;;;3.22;3.03;;;;;;;-0.74;72.95;99592.59;4996371;28;20082;-53
2024/01/15 08:46:24;;;;;;;2.38;1.48;;;;;;;-0.49;72.98;99593.44;4997314;28;20078;-52
2024/01/15 08:48:51;;;;;;;1.88;1.77;;;;;;;-0.16;72.05;99597.97;4992367;28;20128;-52
2024/01/15 08:51:18;;;;;;;3.70;3.45;;;;;;;0.29;71.57;99596.00;4999020;28;20612;-45
2024/01/15 08:53:45;;;;;;;2.38;2.17;;;;;;;0.65;71.76;99595.44;4996547;28;20097;-44
2024/01/15 08:56:12;;;;;;;2.30;1.98;;;;;;;1.05;71.79;99605.06;4998109;28;20048;-47
2024/01/15 08:58:38;;;;;;;3.15;2.85;;;;;;;1.43;71.30;99597.63;4992228;28;20057;-50
2024/01/15 09:01:06;;;;;;;3.00;2.22;;;;;;;1.69;70.51;99609.34;4996069;28;20057;-51
2024/01/15 09:03:33;;;;;;;2.08;1.98;;;;;;;2.01;69.76;99607.63;4995484;28;20053;-46
2024/01/15 09:06:00;;;;;;;5.43;3.88;;;;;;;2.47;68.75;99606.13;4996421;28;20049;-50
2024/01/15 09:08:28;;;;;;;4.35;2.47;;;;;;;2.78;68.12;99597.47;4999344;28;20057;-47
2024/01/15 09:10:54;;;;;;;3.42;2.53;;;;;;;3.16;67.25;99608.47;4998470;28;20077;-48
2024/01/15 09:13:21;;;;;;;6.72;4.75;;;;;;;3.57;66.98;99604.97;4992262;28;20663;-45
2024/01/15 09:15:47;;;;;;;9.18;4.15;;;;;;;4.03;66.64;99599.81;4994193;28;20236;-50
2024/01/15 09:18:14;;;;;;;9.73;5.55;;;;;;;4.59;65.65;99613.50;4991854;28;20050;-47
2024/01/15 09:20:41;;;;;;;78.30;24.65;;;;;;;5.23;65.42;99616.03;4987051;28;20038;-47
2024/01/15 09:23:08;;;;;;;18.25;8.82;;;;;;;5.87;64.81;99614.16;4990093;28;20046;-45
2024/01/15 09:25:36;;;;;;;9.75;3.33;;;;;;;6.30;62.83;99616.28;4990813;28;20451;-49
2024/01/15 09:28:02;;;;;;;15.40;6.25;;;;;;;6.28;61.78;99620.53;4991943;28;20048;-50
2024/01/15 09:30:30;;;;;;;8.25;5.22;;;;;;;6.19;62.51;99628.19;4988746;28;20677;-48
2024/01/15 09:32:58;;;;;;;4.22;2.95;;;;;;;6.45;61.85;99624.97;4986407;28;20050;-46
2024/01/15 09:35:25;;;;;;;3.90;2.55;;;;;;;6.84;61.96;99628.66;4992565;28;20535;-49
2024/01/15 09:37:51;;;;;;;3.90;3.55;;;;;;;7.32;60.72;99630.56;4993140;28;20530;-46
2024/01/15 09:40:20;;;;;;;3.45;3.15;;;;;;;7.81;59.74;99629.84;4988670;28;20081;-51
2024/01/15 09:42:49;;;;;;;3.65;2.92;;;;;;;8.29;58.29;99635.94;4992478;28;20045;-48
2024/01/15 09:45:16;;;;;;;3.00;2.30;;;;;;;8.79;58.09;99641.06;4993251;28;20061;-43
2024/01/15 09:47:43;;;;;;;4.60;2.75;;;;;;;9.22;57.12;99646.13;4992519;28;20050;-49
2024/01/15 09:50:13;;;;;;;2.72;2.08;;;;;;;9.54;56.05;99644.25;4987622;28;20129;-49
2024/01/15 09:52:45;;;;;;;1.20;0.63;;;;;;;9.77;54.81;99644.13;4992264;28;20072;-48
2024/01/15 09:55:15;;;;;;;2.88;2.63;;;;;;;10.18;54.60;99654.22;4996902;28;20049;-48
2024/01/15 09:57:44;;;;;;;2.90;2.38;;;;;;;10.52;54.47;99648.81;4999111;28;20046;-48
2024/01/15 10:00:11;;;;;;;2.85;0.90;;;;;;;10.78;52.68;99650.25;4986785;28;20515;-49
2024/01/15 10:02:38;;;;;;;2.03;1.80;;;;;;;11.11;52.63;99656.88;4992968;28;20053;-48
2024/01/15 10:05:05;;;;;;;1.45;0.60;;;;;;;11.27;51.80;99655.81;4991198;28;20049;-50
2024/01/15 10:07:37;;;;;;;1.98;1.25;;;;;;;11.49;51.74;99654.69;4992335;28;20124;-50
2024/01/15 10:10:04;;;;;;;1.15;0.70;;;;;;;11.67;51.44;99653.56;4995567;28;20112;-53
2024/01/15 10:12:32;;;;;;;3.47;0.80;;;;;;;11.80;50.70;99647.34;4991859;28;20098;-49
2024/01/15 10:14:59;;;;;;;4.90;3.15;;;;;;;12.04;50.68;99640.06;4989330;28;20057;-49
2024/01/15 10:17:27;;;;;;;4.32;0.98;;;;;;;12.28;49.53;99653.56;4994986;28;20077;-51
2024/01/15 10:19:54;;;;;;;2.78;0.70;;;;;;;12.57;48.96;99654.81;4987185;28;20558;-49
2024/01/15 10:22:22;;;;;;;1.58;0.70;;;;;;;12.79;49.95;99654.44;4987669;28;20050;-46
2024/01/15 10:24:49;;;;;;;3.63;0.88;;;;;;;13.05;48.80;99653.09;4990449;28;20057;-48
2024/01/15 10:27:16;;;;;;;0.93;0.43;;;;;;;13.14;48.23;99659.84;4993839;28;20133;-49
2024/01/15 10:29:43;;;;;;;2.63;0.90;;;;;;;13.34;48.07;99662.06;4987300;28;20064;-42
2024/01/15 10:32:11;;;;;;;3.08;0.80;;;;;;;13.55;47.23;99664.28;4993770;28;20061;-48
2024/01/15 10:34:39;;;;;;;3.22;0.80;;;;;;;13.72;47.49;99656.09;4989152;28;20707;-50
2024/01/15 10:37:08;;;;;;;3.35;1.60;;;;;;;13.92;47.03;99663.47;4990885;28;20057;-53
2024/01/15 10:39:36;;;;;;;3.03;1.33;;;;;;;14.07;46.50;99667.47;4990098;28;20046;-48
2024/01/15 10:42:04;;;;;;;3.65;0.80;;;;;;;14.22;45.37;99666.22;4989929;28;20050;-47
2024/01/15 10:44:31;;;;;;;1.65;1.45;;;;;;;14.21;45.21;99668.88;4993758;28;20403;-50
2024/01/15 10:46:58;;;;;;;3.72;0.73;;;;;;;14.18;44.29;99674.19;4994666;28;20126;-45
2024/01/15 10:49:26;;;;;;;1.58;0.80;;;;;;;14.07;44.00;99672.66;4999108;28;20536;-52
2024/01/15 10:51:59;;;;;;;3.38;1.25;;;;;;;13.57;42.60;99689.38;4994443;28;20053;-52
2024/01/15 10:54:27;;;;;;;2.38;0.73;;;;;;;12.97;43.61;99686.19;5001990;28;20053;-55
2024/01/15 10:56:56;;;;;;;2.20;1.08;;;;;;;11.96;42.89;99678.25;4993161;28;20585;-50
2024/01/15 10:59:24;;;;;;;1.90;0.85;;;;;;;11.09;44.94;99684.50;4992860;28;20741;-47
2024/01/15 11:01:53;;;;;;;3.55;1.35;;;;;;;10.34;45.99;99691.19;4992003;28;20046;-51
2024/01/15 11:04:23;;;;;;;2.83;1.08;;;;;;;9.87;46.40;99695.81;4993211;28;20073;-50
2024/01/15 11:06:54;;;;;;;3.00;1.50;;;;;;;9.34;46.06;99688.28;4994527;28;20140;-53
2024/01/15 11:09:23;;;;;;;2.28;1.15;;;;;;;8.74;45.85;99691.00;5001433;28;20050;-51
2024/01/15 11:12:06;;;;;;;2.13;1.08;;;;;;;8.34;46.07;99693.53;4992805;28;20743;-48
2024/01/15 11:14:38;;;;;;;2.95;1.15;;;;;;;7.94;47.12;99696.94;4994745;28;20054;-51
2024/01/15 11:17:05;;;;;;;3.03;1.05;;;;;;;7.59;47.35;99707.16;4993436;28;20061;-53
2024/01/15 11:19:39;;;;;;;2.15;0.77;;;;;;;7.10;47.94;99705.19;4993215;28;20054;-47
2024/01/15 11:22:11;;;;;;;3.58;1.00;;;;;;;6.69;48.62;99712.63;4995791;28;20427;-54
2024/01/15 11:24:40;;;;;;;6.03;2.22;;;;;;;6.29;49.09;99710.56;4990309;28;20054;-45
2024/01/15 11:27:08;;;;;;;1.77;1.63;;;;;;;5.79;47.66;99706.59;4991645;28;20770;-49
2024/01/15 11:29:36;;;;;;;2.30;2.20;;;;;;;5.50;48.94;99709.69;4991635;28;20054;-49
2024/01/15 11:32:05;;;;;;;1.92;0.52;;;;;;;5.31;49.88;99717.16;4998796;28;20049;-49
2024/01/15 11:35:01;;;;;;;2.13;1.92;;;;;;;5.03;50.26;99715.91;4999378;28;20057;-49
2024/01/15 11:40:45;;;;;;;5.53;0.75;;;;;;;4.70;51.62;99706.00;5027769;28;20403;-48